createdAt,value
2023-04-25T00:03:52.094Z,4.75
2023-04-25T00:08:54.617Z,1.38
2023-04-25T00:13:56.103Z,1.33
2023-04-25T00:18:57.696Z,2.65
2023-04-25T00:23:59.249Z,1.27
2023-04-25T00:29:00.799Z,2.58
2023-04-25T00:34:02.422Z,4.40
2023-04-25T00:39:05.640Z,5.35
2023-04-25T00:44:11.211Z,3.35
2023-04-25T00:49:16.902Z,2.17
2023-04-25T00:54:19.835Z,1.85
2023-04-25T00:59:21.600Z,1.85
2023-04-25T01:04:23.200Z,2.90
2023-04-25T01:09:25.354Z,1.00
2023-04-25T01:14:26.911Z,1.75
2023-04-25T01:19:28.525Z,1.42
2023-04-25T01:24:30.338Z,1.90
2023-04-25T01:29:32.094Z,1.83
2023-04-25T01:34:33.643Z,1.48
2023-04-25T01:39:35.157Z,0.80
2023-04-25T01:44:36.598Z,2.00
2023-04-25T01:49:38.343Z,0.77
2023-04-25T01:54:45.009Z,2.08
2023-04-25T01:59:47.018Z,1.23
2023-04-25T02:04:48.558Z,1.58
2023-04-25T02:09:50.097Z,1.52
2023-04-25T02:14:51.574Z,1.40
2023-04-25T02:19:53.051Z,5.10
2023-04-25T02:24:55.003Z,1.85
2023-04-25T02:29:56.502Z,1.92
2023-04-25T02:34:59.702Z,2.20
2023-04-25T02:40:01.259Z,0.98
2023-04-25T02:45:03.454Z,1.45
2023-04-25T02:50:05.533Z,1.30
2023-04-25T02:55:07.197Z,1.30
2023-04-25T03:00:08.917Z,1.13
2023-04-25T03:05:10.396Z,0.98
2023-04-25T03:10:11.920Z,1.15
2023-04-25T03:15:13.381Z,0.65
2023-04-25T03:20:14.881Z,0.50
2023-04-25T03:25:16.453Z,1.20
2023-04-25T03:30:17.928Z,1.33
2023-04-25T03:35:19.374Z,0.73
2023-04-25T03:40:21.075Z,1.35
2023-04-25T03:45:22.636Z,0.43
2023-04-25T03:50:24.255Z,0.70
2023-04-25T03:55:25.713Z,1.13
2023-04-25T04:00:27.332Z,2.83
2023-04-25T04:05:29.533Z,0.50
2023-04-25T04:10:31.422Z,0.85
2023-04-25T04:15:34.124Z,0.90
2023-04-25T04:20:35.689Z,1.00
2023-04-25T04:25:37.340Z,0.68
2023-04-25T04:30:40.268Z,0.60
2023-04-25T04:35:42.727Z,0.45
2023-04-25T04:40:44.249Z,0.60
2023-04-25T04:45:45.729Z,1.73
2023-04-25T04:50:47.618Z,0.45
2023-04-25T04:55:49.146Z,1.40
2023-04-25T05:00:50.819Z,0.60
2023-04-25T05:05:52.302Z,1.25
2023-04-25T05:10:53.803Z,2.30
2023-04-25T05:15:55.366Z,1.52
2023-04-25T05:20:56.846Z,2.80
2023-04-25T05:25:58.427Z,1.75
2023-04-25T05:30:59.918Z,1.40
2023-04-25T05:36:01.725Z,2.80
2023-04-25T05:41:03.359Z,3.88
2023-04-25T05:46:05.046Z,2.33
2023-04-25T05:51:06.652Z,3.78
2023-04-25T05:56:09.471Z,2.88
2023-04-25T06:01:11.128Z,9.57
2023-04-25T06:06:13.122Z,2.20
2023-04-25T06:11:14.852Z,3.70
2023-04-25T06:16:16.531Z,8.02
2023-04-25T06:21:18.077Z,3.30
2023-04-25T06:26:20.442Z,4.65
2023-04-25T06:31:22.022Z,3.75
2023-04-25T06:36:26.099Z,3.15
2023-04-25T06:41:27.706Z,3.42
2023-04-25T06:46:29.464Z,2.28
2023-04-25T06:51:31.852Z,4.47
2023-04-25T06:56:33.441Z,3.97
2023-04-25T07:01:34.969Z,3.88
2023-04-25T07:06:39.167Z,4.00
2023-04-25T07:11:40.740Z,3.15
2023-04-25T07:16:42.962Z,3.22
2023-04-25T07:21:44.458Z,7.30
2023-04-25T07:26:45.991Z,3.83
2023-04-25T07:31:47.550Z,2.80
2023-04-25T07:36:49.095Z,4.28
2023-04-25T07:41:52.080Z,7.72
2023-04-25T07:46:55.373Z,4.07
2023-04-25T07:51:57.222Z,4.68
2023-04-25T07:56:58.921Z,3.83
2023-04-25T08:02:01.277Z,3.63
2023-04-25T08:07:02.948Z,3.42
2023-04-25T08:12:04.833Z,2.95
2023-04-25T08:17:06.562Z,3.28
2023-04-25T08:22:08.677Z,3.13
2023-04-25T08:27:10.838Z,3.35
2023-04-25T08:32:12.320Z,5.15
2023-04-25T08:37:14.029Z,4.03
2023-04-25T08:42:16.040Z,5.00
2023-04-25T08:47:19.305Z,5.47
2023-04-25T08:52:25.576Z,3.95
2023-04-25T08:57:27.600Z,4.22
2023-04-25T09:02:29.973Z,7.25
2023-04-25T09:07:31.593Z,6.43
2023-04-25T09:12:33.145Z,6.18
2023-04-25T09:17:34.744Z,4.25
2023-04-25T09:22:36.806Z,4.38
2023-04-25T09:27:49.898Z,5.45
2023-04-25T09:32:51.456Z,4.45
2023-04-25T09:37:53.003Z,3.88
2023-04-25T09:42:54.504Z,4.75
2023-04-25T09:48:04.259Z,6.68
2023-04-25T09:53:06.778Z,5.53
2023-04-25T09:58:09.228Z,7.50
2023-04-25T10:03:12.128Z,8.82
2023-04-25T10:08:14.556Z,6.78
2023-04-25T10:13:16.383Z,4.15
2023-04-25T10:18:19.940Z,7.40
2023-04-25T10:23:21.631Z,3.50
2023-04-25T10:28:23.364Z,6.03
2023-04-25T10:33:51.223Z,6.68
2023-04-25T10:38:53.812Z,6.85
2023-04-25T10:44:02.407Z,6.63
2023-04-25T10:49:04.210Z,3.88
2023-04-25T10:54:06.782Z,2.80
2023-04-25T10:59:12.450Z,4.43
2023-04-25T11:04:21.178Z,2.72
2023-04-25T11:09:25.019Z,5.13
2023-04-25T11:14:26.828Z,2.50
2023-04-25T11:19:29.224Z,2.78
2023-04-25T11:24:35.855Z,2.88
2023-04-25T11:29:37.621Z,2.60
2023-04-25T11:34:39.164Z,4.15
2023-04-25T11:39:43.912Z,4.63
2023-04-25T11:44:45.510Z,2.22
2023-04-25T11:49:47.205Z,5.63
2023-04-25T11:54:48.897Z,4.30
2023-04-25T11:59:50.741Z,4.35
2023-04-25T12:04:52.376Z,6.90
2023-04-25T12:09:54.516Z,4.80
2023-04-25T12:14:56.345Z,6.82
2023-04-25T12:19:57.810Z,6.53
2023-04-25T12:24:59.582Z,6.53
2023-04-25T12:30:01.285Z,5.25
2023-04-25T12:35:02.909Z,4.90
2023-04-25T12:40:05.396Z,5.22
2023-04-25T12:45:07.446Z,4.05
2023-04-25T12:50:09.773Z,4.45
2023-04-25T12:55:11.308Z,4.25
2023-04-25T13:00:15.776Z,3.88
2023-04-25T13:05:17.353Z,3.53
2023-04-25T13:10:19.188Z,3.08
2023-04-25T13:15:20.788Z,3.00
2023-04-25T13:20:23.568Z,5.18
2023-04-25T13:25:25.078Z,4.90
2023-04-25T13:30:26.851Z,4.15
2023-04-25T13:35:28.414Z,4.28
2023-04-25T13:40:30.007Z,4.68
2023-04-25T13:45:33.306Z,6.70
2023-04-25T13:50:35.514Z,5.43
2023-04-25T13:55:40.047Z,4.97
2023-04-25T14:00:44.187Z,4.57
2023-04-25T14:05:45.941Z,5.80
2023-04-25T14:10:47.421Z,13.93
2023-04-25T14:15:49.067Z,6.90
2023-04-25T14:20:50.637Z,6.53
2023-04-25T14:25:52.195Z,7.97
2023-04-25T14:30:53.875Z,6.80
2023-04-25T14:35:55.654Z,10.18
2023-04-25T14:40:57.255Z,6.53
2023-04-25T14:45:58.753Z,5.50
2023-04-25T14:51:01.118Z,4.20
2023-04-25T14:56:02.638Z,6.93
2023-04-25T15:01:04.282Z,3.58
2023-04-25T15:06:07.283Z,6.28
2023-04-25T15:11:08.797Z,3.35
2023-04-25T15:16:11.222Z,3.55
2023-04-25T15:21:12.725Z,4.80
2023-04-25T15:26:14.266Z,6.18
2023-04-25T15:31:16.051Z,4.03
2023-04-25T15:36:19.453Z,5.60
2023-04-25T15:41:21.212Z,4.20
2023-04-25T15:46:23.935Z,3.58
2023-04-25T15:51:25.626Z,3.20
2023-04-25T15:56:27.116Z,5.00
2023-04-25T16:01:31.144Z,3.08
2023-04-25T16:06:33.166Z,2.70
2023-04-25T16:11:34.732Z,3.30
2023-04-25T16:16:36.450Z,5.40
2023-04-25T16:21:38.243Z,5.18
2023-04-25T16:26:41.148Z,7.90
2023-04-25T16:31:43.561Z,7.57
2023-04-25T16:36:45.261Z,7.43
2023-04-25T16:41:46.905Z,6.25
2023-04-25T16:46:48.973Z,6.90
2023-04-25T16:51:51.019Z,8.82
2023-04-25T16:56:52.810Z,5.47
2023-04-25T17:01:54.326Z,5.78
2023-04-25T17:06:55.826Z,6.65
2023-04-25T17:11:57.923Z,4.53
2023-04-25T17:16:59.745Z,6.95
2023-04-25T17:22:01.479Z,6.20
2023-04-25T17:27:03.292Z,10.52
2023-04-25T17:32:05.123Z,8.95
2023-04-25T17:37:07.482Z,9.43
2023-04-25T17:42:09.670Z,8.75
2023-04-25T17:47:11.809Z,12.10
2023-04-25T17:52:13.498Z,9.57
2023-04-25T17:57:15.009Z,13.00
2023-04-25T18:02:17.055Z,15.70
2023-04-25T18:07:18.696Z,9.90
2023-04-25T18:12:20.823Z,10.93
2023-04-25T18:17:25.163Z,13.60
2023-04-25T18:22:27.330Z,11.10
2023-04-25T18:27:28.833Z,13.18
2023-04-25T18:32:30.612Z,14.95
2023-04-25T18:37:32.103Z,12.70
2023-04-25T18:42:33.618Z,9.60
2023-04-25T18:47:35.263Z,12.50
2023-04-25T18:52:37.194Z,10.13
2023-04-25T18:57:39.169Z,6.53
2023-04-25T19:02:41.532Z,15.65
2023-04-25T19:07:45.113Z,9.70
2023-04-25T19:12:46.604Z,7.07
2023-04-25T19:17:48.177Z,10.23
2023-04-25T19:22:49.743Z,6.47
2023-04-25T19:27:51.336Z,5.15
2023-04-25T19:32:53.033Z,8.63
2023-04-25T19:37:54.514Z,5.95
2023-04-25T19:42:57.164Z,9.70
2023-04-25T19:47:59.038Z,7.53
2023-04-25T19:53:01.219Z,7.97
2023-04-25T19:58:03.520Z,9.45
2023-04-25T20:03:05.258Z,10.85
2023-04-25T20:08:06.856Z,7.22
2023-04-25T20:13:08.668Z,9.20
2023-04-25T20:18:10.366Z,10.10
2023-04-25T20:23:11.969Z,10.65
2023-04-25T20:28:13.492Z,8.07
2023-04-25T20:33:16.018Z,7.80
2023-04-25T20:38:17.577Z,7.88
2023-04-25T20:43:19.893Z,13.15
2023-04-25T20:48:22.083Z,9.50
2023-04-25T20:53:23.735Z,12.73
2023-04-25T20:58:25.506Z,10.25
2023-04-25T21:03:27.230Z,9.20
2023-04-25T21:08:28.889Z,8.27
2023-04-25T21:13:30.477Z,8.02
2023-04-25T21:18:32.164Z,8.32
2023-04-25T21:23:33.695Z,9.32
2023-04-25T21:28:35.309Z,6.82
2023-04-25T21:33:37.031Z,10.43
2023-04-25T21:38:38.595Z,7.57
2023-04-25T21:43:40.075Z,7.57
2023-04-25T21:48:41.908Z,6.85
2023-04-25T21:53:43.419Z,9.80
2023-04-25T21:58:45.486Z,8.75
2023-04-25T22:03:47.060Z,10.23
2023-04-25T22:08:48.681Z,7.32
2023-04-25T22:13:54.507Z,9.93
2023-04-25T22:18:56.060Z,6.80
2023-04-25T22:23:57.603Z,8.23
2023-04-25T22:28:59.216Z,10.48
2023-04-25T22:34:01.080Z,8.82
2023-04-25T22:39:03.107Z,9.15
2023-04-25T22:44:04.651Z,9.55
2023-04-25T22:49:06.322Z,8.52
2023-04-25T22:54:07.782Z,11.32
2023-04-25T22:59:11.592Z,10.55
2023-04-25T23:04:13.352Z,11.95
2023-04-25T23:09:15.919Z,10.82
2023-04-25T23:14:17.396Z,9.18
2023-04-25T23:19:18.875Z,10.32
2023-04-25T23:24:20.756Z,9.60
2023-04-25T23:29:22.281Z,10.00
2023-04-25T23:34:23.740Z,10.23
2023-04-25T23:39:25.998Z,10.20
2023-04-25T23:44:27.552Z,9.90
2023-04-25T23:49:29.484Z,9.63
2023-04-25T23:54:30.954Z,7.05
2023-04-25T23:59:32.456Z,5.82
